createdAt,value
2018-02-21T00:00:05.372Z,66.12
2018-02-21T00:05:06.684Z,66.55
2018-02-21T00:10:08.066Z,67.47
2018-02-21T00:15:09.381Z,67.19
2018-02-21T00:20:10.714Z,67.40
2018-02-21T00:25:12.863Z,67.89
2018-02-21T00:30:14.219Z,67.49
2018-02-21T00:35:15.547Z,67.08
2018-02-21T00:40:16.923Z,67.64
2018-02-21T00:45:18.244Z,68.86
2018-02-21T00:50:19.556Z,69.29
2018-02-21T00:55:21.134Z,68.75
2018-02-21T01:00:22.602Z,67.97
2018-02-21T01:05:23.927Z,67.92
2018-02-21T01:10:25.292Z,67.82
2018-02-21T01:15:26.638Z,67.84
2018-02-21T01:20:27.984Z,68.12
2018-02-21T01:25:29.354Z,68.42
2018-02-21T01:30:30.688Z,68.30
2018-02-21T01:35:32.794Z,68.58
2018-02-21T01:40:34.186Z,68.60
2018-02-21T01:45:36.268Z,68.77
2018-02-21T01:50:51.746Z,69.14
2018-02-21T01:55:53.076Z,68.93
2018-02-21T02:00:54.560Z,68.87
2018-02-21T02:05:55.883Z,70.04
2018-02-21T02:10:57.927Z,69.24
2018-02-21T02:15:59.243Z,70.11
2018-02-21T02:21:00.635Z,70.37
2018-02-21T02:26:01.991Z,70.01
2018-02-21T02:31:03.328Z,70.18
2018-02-21T02:36:04.684Z,71.16
2018-02-21T02:41:06.031Z,71.91
2018-02-21T02:46:08.128Z,71.38
2018-02-21T02:51:09.473Z,71.16
2018-02-21T02:56:10.825Z,70.67
2018-02-21T03:01:12.935Z,70.50
2018-02-21T03:06:15.036Z,70.56
2018-02-21T03:11:17.145Z,70.83
2018-02-21T03:16:19.336Z,71.20
2018-02-21T03:21:20.663Z,71.77
2018-02-21T03:26:22.051Z,71.62
2018-02-21T03:31:23.375Z,72.55
2018-02-21T03:36:24.735Z,72.03
2018-02-21T03:41:26.054Z,71.31
2018-02-21T03:46:27.373Z,71.11
2018-02-21T03:51:28.722Z,71.62
2018-02-21T03:56:30.076Z,71.02
2018-02-21T04:01:32.150Z,71.32
2018-02-21T04:06:33.519Z,71.36
2018-02-21T04:11:34.863Z,71.12
2018-02-21T04:16:36.979Z,71.28
2018-02-21T04:21:38.352Z,71.51
2018-02-21T04:26:39.707Z,71.38
2018-02-21T04:31:41.107Z,71.84
2018-02-21T04:36:42.485Z,71.65
2018-02-21T04:41:43.907Z,71.45
2018-02-21T04:46:45.256Z,72.41
2018-02-21T04:51:46.571Z,72.44
2018-02-21T04:56:52.812Z,72.92
2018-02-21T05:01:54.190Z,73.61
2018-02-21T05:06:56.326Z,73.17
2018-02-21T05:11:57.651Z,73.11
2018-02-21T05:16:59.006Z,73.10
2018-02-21T05:22:00.352Z,71.76
2018-02-21T05:27:01.733Z,71.48
2018-02-21T05:32:03.084Z,71.57
2018-02-21T05:37:04.440Z,72.14
2018-02-21T05:42:06.591Z,71.53
2018-02-21T05:47:07.972Z,72.78
2018-02-21T05:52:09.351Z,72.48
2018-02-21T05:57:10.748Z,72.00
2018-02-21T06:02:12.197Z,71.64
2018-02-21T06:07:13.555Z,70.93
2018-02-21T06:12:14.916Z,72.01
2018-02-21T06:17:16.237Z,71.49
2018-02-21T06:22:17.627Z,71.04
2018-02-21T06:27:19.061Z,70.94
2018-02-21T06:32:20.411Z,71.40
2018-02-21T06:37:21.761Z,72.05
2018-02-21T06:42:23.824Z,72.20
2018-02-21T06:47:25.164Z,72.03
2018-02-21T06:52:26.524Z,72.58
2018-02-21T06:57:28.786Z,72.00
2018-02-21T07:02:34.024Z,71.75
2018-02-21T07:07:36.100Z,71.76
2018-02-21T07:12:44.404Z,72.65
2018-02-21T07:17:45.902Z,72.09
2018-02-21T07:22:48.249Z,71.88
2018-02-21T07:27:49.661Z,72.85
2018-02-21T07:32:50.996Z,72.56
2018-02-21T07:37:52.321Z,71.60
2018-02-21T07:42:53.708Z,71.99
2018-02-21T07:47:55.067Z,71.46
2018-02-21T07:52:56.834Z,71.18
2018-02-21T07:57:58.271Z,70.83
2018-02-21T08:02:59.679Z,70.44
2018-02-21T08:08:01.327Z,70.18
2018-02-21T08:13:03.419Z,70.36
2018-02-21T08:18:05.610Z,69.63
2018-02-21T08:23:06.963Z,68.65
2018-02-21T08:28:08.370Z,68.15
2018-02-21T08:33:09.818Z,68.34
2018-02-21T08:38:12.708Z,67.83
2018-02-21T08:43:14.077Z,66.99
2018-02-21T08:48:15.494Z,66.57
2018-02-21T08:53:16.827Z,65.68
2018-02-21T08:58:18.209Z,66.34
2018-02-21T09:03:19.608Z,66.00
2018-02-21T09:08:20.971Z,66.01
2018-02-21T09:13:23.047Z,65.41
2018-02-21T09:18:24.392Z,64.45
2018-02-21T09:23:25.790Z,63.90
2018-02-21T09:28:27.364Z,63.34
2018-02-21T09:33:29.438Z,63.93
2018-02-21T09:38:30.812Z,62.86
2018-02-21T09:43:32.167Z,62.49
2018-02-21T09:48:33.579Z,62.97
2018-02-21T09:53:34.974Z,63.34
2018-02-21T09:58:36.361Z,64.14
2018-02-21T10:03:37.732Z,60.67
2018-02-21T10:08:39.065Z,59.89
2018-02-21T10:13:40.487Z,58.77
2018-02-21T10:18:41.810Z,58.66
2018-02-21T10:23:43.180Z,60.23
2018-02-21T10:28:44.579Z,60.10
2018-02-21T10:33:45.938Z,60.49
2018-02-21T10:38:47.344Z,59.77
2018-02-21T10:43:49.442Z,59.29
2018-02-21T10:48:51.565Z,59.80
2018-02-21T10:53:53.640Z,57.91
2018-02-21T10:58:55.008Z,57.03
2018-02-21T11:03:56.390Z,55.51
2018-02-21T11:08:57.743Z,54.69
2018-02-21T11:13:59.817Z,52.83
2018-02-21T11:19:01.175Z,52.95
2018-02-21T11:24:02.572Z,51.67
2018-02-21T11:29:04.007Z,52.58
2018-02-21T11:34:06.078Z,52.54
2018-02-21T11:39:07.415Z,51.06
2018-02-21T11:44:09.539Z,50.20
2018-02-21T11:49:10.911Z,49.93
2018-02-21T11:54:13.063Z,49.38
2018-02-21T11:59:15.595Z,47.63
2018-02-21T12:04:17.127Z,47.26
2018-02-21T12:09:19.755Z,48.00
2018-02-21T12:14:21.196Z,47.55
2018-02-21T12:19:22.692Z,46.93
2018-02-21T12:24:24.048Z,47.65
2018-02-21T12:29:25.437Z,47.56
2018-02-21T12:34:26.815Z,46.94
2018-02-21T12:39:33.275Z,46.43
2018-02-21T12:44:34.655Z,47.43
2018-02-21T12:49:37.398Z,47.19
2018-02-21T12:54:39.276Z,46.86
2018-02-21T12:59:40.788Z,46.41
2018-02-21T13:04:43.428Z,46.77
2018-02-21T13:09:45.548Z,46.26
2018-02-21T13:14:46.931Z,45.58
2018-02-21T13:19:49.090Z,44.28
2018-02-21T13:24:50.688Z,46.61
2018-02-21T13:29:52.062Z,46.36
2018-02-21T13:34:53.607Z,45.60
2018-02-21T13:39:54.973Z,45.59
2018-02-21T13:44:56.355Z,46.64
2018-02-21T13:49:57.735Z,46.53
2018-02-21T13:54:59.132Z,45.06
2018-02-21T14:00:00.585Z,44.94
2018-02-21T14:05:02.713Z,44.70
2018-02-21T14:10:04.121Z,44.75
2018-02-21T14:15:05.526Z,44.34
2018-02-21T14:20:06.927Z,44.65
2018-02-21T14:25:08.332Z,44.58
2018-02-21T14:30:09.716Z,44.95
2018-02-21T14:35:11.087Z,45.06
2018-02-21T14:40:12.467Z,45.75
2018-02-21T14:45:13.887Z,45.32
2018-02-21T14:50:15.260Z,45.15
2018-02-21T14:55:16.624Z,45.29
2018-02-21T15:00:17.985Z,45.90
2018-02-21T15:05:20.092Z,45.41
2018-02-21T15:10:22.508Z,45.67
2018-02-21T15:15:24.606Z,45.55
2018-02-21T15:20:26.764Z,45.60
2018-02-21T15:25:28.118Z,45.76
2018-02-21T15:30:30.640Z,45.47
2018-02-21T15:35:32.441Z,46.09
2018-02-21T15:40:41.208Z,45.79
2018-02-21T15:45:42.800Z,46.63
2018-02-21T15:50:44.284Z,46.41
2018-02-21T15:55:45.789Z,46.84
2018-02-21T16:00:47.277Z,47.72
2018-02-21T16:05:48.650Z,47.59
2018-02-21T16:10:50.768Z,47.21
2018-02-21T16:15:52.083Z,47.86
2018-02-21T16:20:53.487Z,48.14
2018-02-21T16:25:54.928Z,48.10
2018-02-21T16:30:56.391Z,48.44
2018-02-21T16:35:57.758Z,48.51
2018-02-21T16:40:59.148Z,48.62
2018-02-21T16:46:00.520Z,48.89
2018-02-21T16:51:01.925Z,49.12
2018-02-21T16:56:03.321Z,49.34
2018-02-21T17:01:04.694Z,49.84
2018-02-21T17:06:07.007Z,49.65
2018-02-21T17:11:08.429Z,50.44
2018-02-21T17:16:09.811Z,49.97
2018-02-21T17:21:11.123Z,49.29
2018-02-21T17:26:12.515Z,48.70
2018-02-21T17:31:13.873Z,48.66
2018-02-21T17:36:15.518Z,49.13
2018-02-21T17:41:32.669Z,49.31
2018-02-21T17:46:34.011Z,49.88
2018-02-21T17:51:35.371Z,50.06
2018-02-21T17:56:37.459Z,50.73
2018-02-21T18:01:38.890Z,50.64
2018-02-21T18:06:40.273Z,50.38
2018-02-21T18:11:41.652Z,50.52
2018-02-21T18:16:43.862Z,50.44
2018-02-21T18:21:48.899Z,50.44
2018-02-21T18:26:50.239Z,50.75
2018-02-21T18:31:51.677Z,50.72
2018-02-21T18:36:53.207Z,50.34
2018-02-21T18:41:54.651Z,50.51
2018-02-21T18:46:56.039Z,50.81
2018-02-21T18:51:57.411Z,51.38
2018-02-21T18:56:58.847Z,51.40
2018-02-21T19:02:00.239Z,51.61
2018-02-21T19:07:02.996Z,51.71
2018-02-21T19:12:05.102Z,52.13
2018-02-21T19:17:07.178Z,51.89
2018-02-21T19:22:09.296Z,51.77
2018-02-21T19:27:10.692Z,51.17
2018-02-21T19:32:13.051Z,51.53
2018-02-21T19:37:15.275Z,51.27
2018-02-21T19:42:16.640Z,51.04
2018-02-21T19:47:17.991Z,51.25
2018-02-21T19:52:20.271Z,51.28
2018-02-21T19:57:22.528Z,51.41
2018-02-21T20:02:23.935Z,51.97
2018-02-21T20:07:26.043Z,51.95
2018-02-21T20:12:27.431Z,51.86
2018-02-21T20:17:29.601Z,51.61
2018-02-21T20:22:30.940Z,52.31
2018-02-21T20:27:32.321Z,52.26
2018-02-21T20:32:33.691Z,51.98
2018-02-21T20:37:35.941Z,52.64
2018-02-21T20:42:37.420Z,51.94
2018-02-21T20:47:39.572Z,51.87
2018-02-21T20:52:40.921Z,52.08
2018-02-21T20:57:42.384Z,53.20
2018-02-21T21:02:43.907Z,52.35
2018-02-21T21:07:45.271Z,51.82
2018-02-21T21:12:46.659Z,52.39
2018-02-21T21:17:47.997Z,52.21
2018-02-21T21:22:49.468Z,52.30
2018-02-21T21:27:50.828Z,52.88
2018-02-21T21:32:52.172Z,52.45
2018-02-21T21:37:53.645Z,51.91
2018-02-21T21:42:55.735Z,52.24
2018-02-21T21:47:57.818Z,52.55
2018-02-21T21:52:59.431Z,52.90
2018-02-21T21:58:01.526Z,52.93
2018-02-21T22:03:03.067Z,53.41
2018-02-21T22:08:04.579Z,53.32
2018-02-21T22:13:05.955Z,53.91
2018-02-21T22:18:07.461Z,53.81
2018-02-21T22:23:08.843Z,53.94
2018-02-21T22:28:10.152Z,54.39
2018-02-21T22:33:11.579Z,54.55
2018-02-21T22:38:12.975Z,54.87
2018-02-21T22:43:15.083Z,54.66
2018-02-21T22:48:16.483Z,54.92
2018-02-21T22:53:17.831Z,55.43
2018-02-21T22:58:19.181Z,55.54
2018-02-21T23:03:20.530Z,56.24
2018-02-21T23:08:22.041Z,56.69
2018-02-21T23:13:24.180Z,56.94
2018-02-21T23:18:25.521Z,57.17
2018-02-21T23:23:26.926Z,57.45
2018-02-21T23:28:29.005Z,57.61
2018-02-21T23:33:30.315Z,57.96
2018-02-21T23:38:32.415Z,57.57
2018-02-21T23:43:33.776Z,58.50
2018-02-21T23:48:35.220Z,58.34
2018-02-21T23:53:36.707Z,58.69
2018-02-21T23:58:38.767Z,59.41
